This is the latest recevied weather packets stored in our database for station/object LU3HGB-WX. If no packets are shown the sender has not sent any weather packets the latest 10 day(s).
| Time | Temp. | Humidity | Pressure | Rain* | Wind** | Luminosity | Snow |
|---|---|---|---|---|---|---|---|
| 1788401862 | 10° C | 82% | 1013 hPa | 0 mm | - | 0 W/m² | - |
| 1788401560 | 10° C | 81% | 1013 hPa | 0 mm | - | 0 W/m² | - |
| 1788401260 | 10° C | 82% | 1013 hPa | 0 mm | - | 0 W/m² | - |
| 1788400960 | 10.56° C | 80% | 1013 hPa | 0 mm | - | 0 W/m² | - |
| 1788400659 | 10.56° C | 80% | 1013 hPa | 0 mm | - | 0 W/m² | - |
| 1788400360 | 10.56° C | 79% | 1013 hPa | 0 mm | - | 0 W/m² | - |
| 1788400060 | 10.56° C | 81% | 1013 hPa | 0 mm | - | 0 W/m² | - |
| 1788399760 | 10.56° C | 79% | 1013 hPa | 0 mm | - | 0 W/m² | - |
| 1788399459 | 10.56° C | 80% | 1013 hPa | 0 mm | - | 0 W/m² | - |
| 1788399159 | 11.11° C | 78% | 1013 hPa | 0 mm | - | 0 W/m² | - |
| 1788398859 | 11.67° C | 77% | 1013 hPa | 0 mm | - | 0 W/m² | - |
| 1788398560 | 11.67° C | 77% | 1013 hPa | 0 mm | - | 0 W/m² | - |
| 1788398259 | 12.22° C | 76% | 1013 hPa | 0 mm | - | 0 W/m² | - |
| 1788397960 | 12.22° C | 75% | 1012 hPa | 0 mm | - | 0 W/m² | - |
| 1788397660 | 12.22° C | 75% | 1012 hPa | 0 mm | - | 0 W/m² | - |
| 1788397359 | 12.22° C | 75% | 1012 hPa | 0 mm | - | 0 W/m² | - |
| 1788397060 | 11.67° C | 76% | 1013 hPa | 0 mm | - | 0 W/m² | - |
| 1788396760 | 11.67° C | 75% | 1013 hPa | 0 mm | - | 0 W/m² | - |
| 1788396459 | 11.67° C | 77% | 1013 hPa | 0 mm | - | 0 W/m² | - |
| 1788396170 | 12.22° C | 75% | 1013 hPa | 0 mm | - | 0 W/m² | - |
| 1788395860 | 12.22° C | 75% | 1013 hPa | 0 mm | - | 0 W/m² | - |
| 1788395559 | 12.78° C | 72% | 1012 hPa | 0 mm | - | 0 W/m² | - |
| 1788395260 | 13.33° C | 70% | 1013 hPa | 0 mm | - | 0 W/m² | - |
| 1788394959 | 12.78° C | 71% | 1012 hPa | 0 mm | - | 0 W/m² | - |
| 1788394660 | 12.78° C | 70% | 1012 hPa | 0 mm | - | 0 W/m² | - |
* Rain latest hour (hover to see other rain measurements)
** Current wind speed in m/s (hover to see current wind gust speed)